sensor_id;sensor_type;location;lat;lon;timestamp;P1;durP1;ratioP1;P2;durP2;ratioP2
76208;SDS011;64990;51.698;-0.292;2022-12-18T00:01:37;95.13;;;29.48;;
76208;SDS011;64990;51.698;-0.292;2022-12-18T00:04:07;93.65;;;30.05;;
76208;SDS011;64990;51.698;-0.292;2022-12-18T00:06:36;84.03;;;27.02;;
76208;SDS011;64990;51.698;-0.292;2022-12-18T00:09:03;102.82;;;29.80;;
76208;SDS011;64990;51.698;-0.292;2022-12-18T00:11:30;94.40;;;29.13;;
76208;SDS011;64990;51.698;-0.292;2022-12-18T00:13:56;86.72;;;29.55;;
76208;SDS011;64990;51.698;-0.292;2022-12-18T00:16:23;95.15;;;30.67;;
76208;SDS011;64990;51.698;-0.292;2022-12-18T00:18:50;104.88;;;30.83;;
76208;SDS011;64990;51.698;-0.292;2022-12-18T00:21:17;96.22;;;29.30;;
76208;SDS011;64990;51.698;-0.292;2022-12-18T00:23:43;90.95;;;31.40;;
76208;SDS011;64990;51.698;-0.292;2022-12-18T00:26:10;99.85;;;32.17;;
76208;SDS011;64990;51.698;-0.292;2022-12-18T00:28:37;102.53;;;31.17;;
76208;SDS011;64990;51.698;-0.292;2022-12-18T00:31:03;91.00;;;30.50;;
76208;SDS011;64990;51.698;-0.292;2022-12-18T00:33:30;93.15;;;30.15;;
76208;SDS011;64990;51.698;-0.292;2022-12-18T00:36:06;95.63;;;29.08;;
76208;SDS011;64990;51.698;-0.292;2022-12-18T00:38:32;91.80;;;29.42;;
76208;SDS011;64990;51.698;-0.292;2022-12-18T00:40:58;108.82;;;31.20;;
76208;SDS011;64990;51.698;-0.292;2022-12-18T00:43:24;79.80;;;28.65;;
76208;SDS011;64990;51.698;-0.292;2022-12-18T00:45:50;94.97;;;29.20;;
76208;SDS011;64990;51.698;-0.292;2022-12-18T00:48:16;100.57;;;28.63;;
76208;SDS011;64990;51.698;-0.292;2022-12-18T00:50:42;92.15;;;29.73;;
76208;SDS011;64990;51.698;-0.292;2022-12-18T00:53:11;97.47;;;32.05;;
76208;SDS011;64990;51.698;-0.292;2022-12-18T00:55:39;89.63;;;27.45;;
76208;SDS011;64990;51.698;-0.292;2022-12-18T00:58:05;82.80;;;31.25;;
76208;SDS011;64990;51.698;-0.292;2022-12-18T01:00:31;96.97;;;30.23;;
76208;SDS011;64990;51.698;-0.292;2022-12-18T01:02:57;86.47;;;28.38;;
76208;SDS011;64990;51.698;-0.292;2022-12-18T01:05:23;92.15;;;29.88;;
76208;SDS011;64990;51.698;-0.292;2022-12-18T01:07:49;97.97;;;29.70;;
76208;SDS011;64990;51.698;-0.292;2022-12-18T01:10:15;90.47;;;28.80;;
76208;SDS011;64990;51.698;-0.292;2022-12-18T01:12:41;98.97;;;30.13;;
76208;SDS011;64990;51.698;-0.292;2022-12-18T01:15:07;86.13;;;29.08;;
76208;SDS011;64990;51.698;-0.292;2022-12-18T01:17:34;88.97;;;29.73;;
76208;SDS011;64990;51.698;-0.292;2022-12-18T01:20:00;86.90;;;28.00;;
76208;SDS011;64990;51.698;-0.292;2022-12-18T01:22:26;96.70;;;31.30;;
76208;SDS011;64990;51.698;-0.292;2022-12-18T01:24:52;93.18;;;29.17;;
76208;SDS011;64990;51.698;-0.292;2022-12-18T01:27:18;99.63;;;29.88;;
76208;SDS011;64990;51.698;-0.292;2022-12-18T01:29:44;97.80;;;31.00;;
76208;SDS011;64990;51.698;-0.292;2022-12-18T01:32:10;92.07;;;32.55;;
76208;SDS011;64990;51.698;-0.292;2022-12-18T01:34:36;99.10;;;28.55;;
76208;SDS011;64990;51.698;-0.292;2022-12-18T01:37:03;100.00;;;31.77;;
76208;SDS011;64990;51.698;-0.292;2022-12-18T01:39:29;102.80;;;31.02;;
76208;SDS011;64990;51.698;-0.292;2022-12-18T01:41:57;104.00;;;29.77;;
76208;SDS011;64990;51.698;-0.292;2022-12-18T01:50:00;114.93;;;32.28;;
76208;SDS011;64990;51.698;-0.292;2022-12-18T01:52:28;109.40;;;32.70;;
76208;SDS011;64990;51.698;-0.292;2022-12-18T01:54:54;114.55;;;32.13;;
76208;SDS011;64990;51.698;-0.292;2022-12-18T01:57:21;109.43;;;33.25;;
76208;SDS011;64990;51.698;-0.292;2022-12-18T01:59:49;115.97;;;32.00;;
76208;SDS011;64990;51.698;-0.292;2022-12-18T02:02:16;100.00;;;31.73;;
76208;SDS011;64990;51.698;-0.292;2022-12-18T02:04:42;125.50;;;33.83;;
76208;SDS011;64990;51.698;-0.292;2022-12-18T02:09:40;125.85;;;33.40;;
76208;SDS011;64990;51.698;-0.292;2022-12-18T02:12:19;97.32;;;30.40;;
76208;SDS011;64990;51.698;-0.292;2022-12-18T02:14:54;117.40;;;34.53;;
76208;SDS011;64990;51.698;-0.292;2022-12-18T02:25:12;95.93;;;28.67;;
76208;SDS011;64990;51.698;-0.292;2022-12-18T02:27:39;85.82;;;30.77;;
76208;SDS011;64990;51.698;-0.292;2022-12-18T02:30:06;107.63;;;28.20;;
76208;SDS011;64990;51.698;-0.292;2022-12-18T02:32:34;66.72;;;25.17;;
76208;SDS011;64990;51.698;-0.292;2022-12-18T02:35:02;69.65;;;26.48;;
76208;SDS011;64990;51.698;-0.292;2022-12-18T02:37:28;79.60;;;25.77;;
76208;SDS011;64990;51.698;-0.292;2022-12-18T02:39:56;76.13;;;25.65;;
76208;SDS011;64990;51.698;-0.292;2022-12-18T02:42:22;85.57;;;28.45;;
76208;SDS011;64990;51.698;-0.292;2022-12-18T02:44:50;85.88;;;27.98;;
76208;SDS011;64990;51.698;-0.292;2022-12-18T02:47:21;106.22;;;34.22;;
76208;SDS011;64990;51.698;-0.292;2022-12-18T02:49:52;107.57;;;28.95;;
76208;SDS011;64990;51.698;-0.292;2022-12-18T02:57:34;87.45;;;31.00;;
76208;SDS011;64990;51.698;-0.292;2022-12-18T03:02:29;79.93;;;26.92;;
76208;SDS011;64990;51.698;-0.292;2022-12-18T03:05:13;110.20;;;32.63;;
76208;SDS011;64990;51.698;-0.292;2022-12-18T03:10:16;94.32;;;26.08;;
76208;SDS011;64990;51.698;-0.292;2022-12-18T03:12:44;74.95;;;24.75;;
76208;SDS011;64990;51.698;-0.292;2022-12-18T03:15:14;74.30;;;27.55;;
76208;SDS011;64990;51.698;-0.292;2022-12-18T03:17:44;88.50;;;27.50;;
76208;SDS011;64990;51.698;-0.292;2022-12-18T03:20:15;89.65;;;28.92;;
76208;SDS011;64990;51.698;-0.292;2022-12-18T03:22:43;89.85;;;27.55;;
76208;SDS011;64990;51.698;-0.292;2022-12-18T03:25:13;81.55;;;28.20;;
76208;SDS011;64990;51.698;-0.292;2022-12-18T03:27:46;83.60;;;29.45;;
76208;SDS011;64990;51.698;-0.292;2022-12-18T03:30:13;85.82;;;29.38;;
76208;SDS011;64990;51.698;-0.292;2022-12-18T03:35:13;104.15;;;29.98;;
76208;SDS011;64990;51.698;-0.292;2022-12-18T03:37:41;83.30;;;29.45;;
76208;SDS011;64990;51.698;-0.292;2022-12-18T03:40:08;88.90;;;28.85;;
76208;SDS011;64990;51.698;-0.292;2022-12-18T03:42:40;80.45;;;26.80;;
76208;SDS011;64990;51.698;-0.292;2022-12-18T03:45:14;96.45;;;28.42;;
76208;SDS011;64990;51.698;-0.292;2022-12-18T03:47:48;98.38;;;26.92;;
76208;SDS011;64990;51.698;-0.292;2022-12-18T03:50:20;83.38;;;25.35;;
76208;SDS011;64990;51.698;-0.292;2022-12-18T03:52:49;88.03;;;27.58;;
76208;SDS011;64990;51.698;-0.292;2022-12-18T03:55:17;88.35;;;28.73;;
76208;SDS011;64990;51.698;-0.292;2022-12-18T03:57:43;102.78;;;28.25;;
76208;SDS011;64990;51.698;-0.292;2022-12-18T04:00:13;98.53;;;28.08;;
76208;SDS011;64990;51.698;-0.292;2022-12-18T04:02:42;85.80;;;25.63;;
76208;SDS011;64990;51.698;-0.292;2022-12-18T04:05:09;72.70;;;24.75;;
76208;SDS011;64990;51.698;-0.292;2022-12-18T04:07:36;66.93;;;24.60;;
76208;SDS011;64990;51.698;-0.292;2022-12-18T04:10:03;84.82;;;26.95;;
76208;SDS011;64990;51.698;-0.292;2022-12-18T04:12:31;86.95;;;26.77;;
76208;SDS011;64990;51.698;-0.292;2022-12-18T04:14:57;76.82;;;25.10;;
76208;SDS011;64990;51.698;-0.292;2022-12-18T04:17:23;80.18;;;27.27;;
76208;SDS011;64990;51.698;-0.292;2022-12-18T04:19:50;86.20;;;25.27;;
76208;SDS011;64990;51.698;-0.292;2022-12-18T04:22:16;88.45;;;28.33;;
76208;SDS011;64990;51.698;-0.292;2022-12-18T04:24:42;76.72;;;28.50;;
76208;SDS011;64990;51.698;-0.292;2022-12-18T04:27:08;97.88;;;27.08;;
76208;SDS011;64990;51.698;-0.292;2022-12-18T04:29:34;91.95;;;25.70;;
76208;SDS011;64990;51.698;-0.292;2022-12-18T04:32:00;92.32;;;31.92;;
76208;SDS011;64990;51.698;-0.292;2022-12-18T04:34:26;95.88;;;28.98;;
76208;SDS011;64990;51.698;-0.292;2022-12-18T04:36:52;94.53;;;31.45;;
76208;SDS011;64990;51.698;-0.292;2022-12-18T04:39:18;75.03;;;26.38;;
76208;SDS011;64990;51.698;-0.292;2022-12-18T04:41:44;91.05;;;26.65;;
76208;SDS011;64990;51.698;-0.292;2022-12-18T04:44:10;76.15;;;24.65;;
76208;SDS011;64990;51.698;-0.292;2022-12-18T04:46:36;85.38;;;24.20;;
76208;SDS011;64990;51.698;-0.292;2022-12-18T04:49:02;104.70;;;27.73;;
76208;SDS011;64990;51.698;-0.292;2022-12-18T04:51:28;69.22;;;25.13;;
76208;SDS011;64990;51.698;-0.292;2022-12-18T04:53:54;69.93;;;26.17;;
76208;SDS011;64990;51.698;-0.292;2022-12-18T04:56:20;78.78;;;26.15;;
76208;SDS011;64990;51.698;-0.292;2022-12-18T04:58:46;80.35;;;22.40;;
76208;SDS011;64990;51.698;-0.292;2022-12-18T05:01:12;77.43;;;23.83;;
76208;SDS011;64990;51.698;-0.292;2022-12-18T05:03:39;88.63;;;27.17;;
76208;SDS011;64990;51.698;-0.292;2022-12-18T05:06:05;83.00;;;23.05;;
76208;SDS011;64990;51.698;-0.292;2022-12-18T05:08:31;86.03;;;24.65;;
76208;SDS011;64990;51.698;-0.292;2022-12-18T05:11:01;72.07;;;21.23;;
76208;SDS011;64990;51.698;-0.292;2022-12-18T05:13:27;66.80;;;21.58;;
76208;SDS011;64990;51.698;-0.292;2022-12-18T05:15:53;79.13;;;24.05;;
76208;SDS011;64990;51.698;-0.292;2022-12-18T05:18:20;83.32;;;24.45;;
76208;SDS011;64990;51.698;-0.292;2022-12-18T05:20:46;89.88;;;26.10;;
76208;SDS011;64990;51.698;-0.292;2022-12-18T05:23:12;82.13;;;26.15;;
76208;SDS011;64990;51.698;-0.292;2022-12-18T05:25:38;84.30;;;24.58;;
76208;SDS011;64990;51.698;-0.292;2022-12-18T05:28:04;86.93;;;28.58;;
76208;SDS011;64990;51.698;-0.292;2022-12-18T05:30:30;85.15;;;26.30;;
76208;SDS011;64990;51.698;-0.292;2022-12-18T05:32:56;90.03;;;29.23;;
76208;SDS011;64990;51.698;-0.292;2022-12-18T05:35:22;81.93;;;25.30;;
76208;SDS011;64990;51.698;-0.292;2022-12-18T05:37:48;81.43;;;26.27;;
76208;SDS011;64990;51.698;-0.292;2022-12-18T05:40:14;79.32;;;23.15;;
76208;SDS011;64990;51.698;-0.292;2022-12-18T05:42:40;88.47;;;29.40;;
76208;SDS011;64990;51.698;-0.292;2022-12-18T05:45:06;67.70;;;21.08;;
76208;SDS011;64990;51.698;-0.292;2022-12-18T05:47:32;93.15;;;27.80;;
76208;SDS011;64990;51.698;-0.292;2022-12-18T05:49:58;86.43;;;27.33;;
76208;SDS011;64990;51.698;-0.292;2022-12-18T05:52:24;93.80;;;24.67;;
76208;SDS011;64990;51.698;-0.292;2022-12-18T05:54:50;87.75;;;30.13;;
76208;SDS011;64990;51.698;-0.292;2022-12-18T05:57:16;91.85;;;26.42;;
76208;SDS011;64990;51.698;-0.292;2022-12-18T05:59:43;76.18;;;23.70;;
76208;SDS011;64990;51.698;-0.292;2022-12-18T06:02:09;81.15;;;24.98;;
76208;SDS011;64990;51.698;-0.292;2022-12-18T06:04:35;110.03;;;31.63;;
76208;SDS011;64990;51.698;-0.292;2022-12-18T06:07:04;91.22;;;26.00;;
76208;SDS011;64990;51.698;-0.292;2022-12-18T06:09:30;97.85;;;26.92;;
76208;SDS011;64990;51.698;-0.292;2022-12-18T06:11:56;79.85;;;24.35;;
76208;SDS011;64990;51.698;-0.292;2022-12-18T06:14:22;87.40;;;28.65;;
76208;SDS011;64990;51.698;-0.292;2022-12-18T06:16:50;93.50;;;28.58;;
76208;SDS011;64990;51.698;-0.292;2022-12-18T06:19:17;71.85;;;23.75;;
76208;SDS011;64990;51.698;-0.292;2022-12-18T06:21:43;82.07;;;26.45;;
76208;SDS011;64990;51.698;-0.292;2022-12-18T06:24:09;76.22;;;24.63;;
76208;SDS011;64990;51.698;-0.292;2022-12-18T06:26:36;78.35;;;28.30;;
76208;SDS011;64990;51.698;-0.292;2022-12-18T06:29:03;69.47;;;25.70;;
76208;SDS011;64990;51.698;-0.292;2022-12-18T06:31:29;78.63;;;26.13;;
76208;SDS011;64990;51.698;-0.292;2022-12-18T06:33:55;93.15;;;27.73;;
76208;SDS011;64990;51.698;-0.292;2022-12-18T06:36:21;71.28;;;25.00;;
76208;SDS011;64990;51.698;-0.292;2022-12-18T06:38:47;84.07;;;25.17;;
76208;SDS011;64990;51.698;-0.292;2022-12-18T06:41:15;72.78;;;26.67;;
76208;SDS011;64990;51.698;-0.292;2022-12-18T06:43:41;91.85;;;28.95;;
76208;SDS011;64990;51.698;-0.292;2022-12-18T06:46:08;63.45;;;22.98;;
76208;SDS011;64990;51.698;-0.292;2022-12-18T06:48:34;81.07;;;25.80;;
76208;SDS011;64990;51.698;-0.292;2022-12-18T06:51:00;73.93;;;24.85;;
76208;SDS011;64990;51.698;-0.292;2022-12-18T06:53:27;80.70;;;27.17;;
76208;SDS011;64990;51.698;-0.292;2022-12-18T06:55:58;63.47;;;23.98;;
76208;SDS011;64990;51.698;-0.292;2022-12-18T06:58:24;69.03;;;24.63;;
76208;SDS011;64990;51.698;-0.292;2022-12-18T07:00:50;80.85;;;27.92;;
76208;SDS011;64990;51.698;-0.292;2022-12-18T07:03:16;74.65;;;25.17;;
76208;SDS011;64990;51.698;-0.292;2022-12-18T07:05:42;72.78;;;22.55;;
76208;SDS011;64990;51.698;-0.292;2022-12-18T07:08:08;61.28;;;22.30;;
76208;SDS011;64990;51.698;-0.292;2022-12-18T07:10:40;73.60;;;25.00;;
76208;SDS011;64990;51.698;-0.292;2022-12-18T07:13:06;74.05;;;24.50;;
76208;SDS011;64990;51.698;-0.292;2022-12-18T07:15:32;112.28;;;26.23;;
76208;SDS011;64990;51.698;-0.292;2022-12-18T07:17:58;78.25;;;23.63;;
76208;SDS011;64990;51.698;-0.292;2022-12-18T07:20:24;63.63;;;23.02;;
76208;SDS011;64990;51.698;-0.292;2022-12-18T07:22:50;77.85;;;22.88;;
76208;SDS011;64990;51.698;-0.292;2022-12-18T07:25:16;77.25;;;25.73;;
76208;SDS011;64990;51.698;-0.292;2022-12-18T07:27:42;91.55;;;25.20;;
76208;SDS011;64990;51.698;-0.292;2022-12-18T07:30:08;69.00;;;23.65;;
76208;SDS011;64990;51.698;-0.292;2022-12-18T07:32:35;65.25;;;23.52;;
76208;SDS011;64990;51.698;-0.292;2022-12-18T07:35:01;67.85;;;23.75;;
76208;SDS011;64990;51.698;-0.292;2022-12-18T07:37:27;55.22;;;22.05;;
76208;SDS011;64990;51.698;-0.292;2022-12-18T07:39:53;61.55;;;22.20;;
76208;SDS011;64990;51.698;-0.292;2022-12-18T07:42:19;75.32;;;25.10;;
76208;SDS011;64990;51.698;-0.292;2022-12-18T07:44:57;66.18;;;25.38;;
76208;SDS011;64990;51.698;-0.292;2022-12-18T07:47:23;67.70;;;25.45;;
76208;SDS011;64990;51.698;-0.292;2022-12-18T07:49:49;77.93;;;23.42;;
76208;SDS011;64990;51.698;-0.292;2022-12-18T07:52:16;59.05;;;20.48;;
76208;SDS011;64990;51.698;-0.292;2022-12-18T07:54:42;63.58;;;24.48;;
76208;SDS011;64990;51.698;-0.292;2022-12-18T07:57:08;52.95;;;20.58;;
76208;SDS011;64990;51.698;-0.292;2022-12-18T07:59:34;57.95;;;22.17;;
76208;SDS011;64990;51.698;-0.292;2022-12-18T08:02:00;68.05;;;24.33;;
76208;SDS011;64990;51.698;-0.292;2022-12-18T08:04:26;55.35;;;20.85;;
76208;SDS011;64990;51.698;-0.292;2022-12-18T08:06:52;57.00;;;19.83;;
76208;SDS011;64990;51.698;-0.292;2022-12-18T08:09:18;67.35;;;24.05;;
76208;SDS011;64990;51.698;-0.292;2022-12-18T08:11:44;78.93;;;22.65;;
76208;SDS011;64990;51.698;-0.292;2022-12-18T08:14:11;67.32;;;23.25;;
76208;SDS011;64990;51.698;-0.292;2022-12-18T08:16:37;57.03;;;19.70;;
76208;SDS011;64990;51.698;-0.292;2022-12-18T08:19:03;60.83;;;22.55;;
76208;SDS011;64990;51.698;-0.292;2022-12-18T08:21:29;62.25;;;21.85;;
76208;SDS011;64990;51.698;-0.292;2022-12-18T08:23:56;55.70;;;19.95;;
76208;SDS011;64990;51.698;-0.292;2022-12-18T08:26:23;55.55;;;21.48;;
76208;SDS011;64990;51.698;-0.292;2022-12-18T08:28:50;59.97;;;20.23;;
76208;SDS011;64990;51.698;-0.292;2022-12-18T08:31:16;58.65;;;19.60;;
76208;SDS011;64990;51.698;-0.292;2022-12-18T08:33:42;47.03;;;22.45;;
76208;SDS011;64990;51.698;-0.292;2022-12-18T08:36:09;50.28;;;22.17;;
76208;SDS011;64990;51.698;-0.292;2022-12-18T08:38:35;65.00;;;23.75;;
76208;SDS011;64990;51.698;-0.292;2022-12-18T08:41:02;62.75;;;22.00;;
76208;SDS011;64990;51.698;-0.292;2022-12-18T08:43:28;51.88;;;21.50;;
76208;SDS011;64990;51.698;-0.292;2022-12-18T08:46:16;57.35;;;21.38;;
76208;SDS011;64990;51.698;-0.292;2022-12-18T08:48:42;54.90;;;21.90;;
76208;SDS011;64990;51.698;-0.292;2022-12-18T08:51:09;55.50;;;22.60;;
76208;SDS011;64990;51.698;-0.292;2022-12-18T08:53:35;61.67;;;20.95;;
76208;SDS011;64990;51.698;-0.292;2022-12-18T08:56:02;64.38;;;24.48;;
76208;SDS011;64990;51.698;-0.292;2022-12-18T08:58:28;56.80;;;21.27;;
76208;SDS011;64990;51.698;-0.292;2022-12-18T09:00:59;68.85;;;25.27;;
76208;SDS011;64990;51.698;-0.292;2022-12-18T09:03:25;56.00;;;20.42;;
76208;SDS011;64990;51.698;-0.292;2022-12-18T09:05:51;69.32;;;23.15;;
76208;SDS011;64990;51.698;-0.292;2022-12-18T09:08:17;58.05;;;22.13;;
76208;SDS011;64990;51.698;-0.292;2022-12-18T09:10:43;59.08;;;21.35;;
76208;SDS011;64990;51.698;-0.292;2022-12-18T09:13:10;65.88;;;22.52;;
76208;SDS011;64990;51.698;-0.292;2022-12-18T09:15:46;65.82;;;23.30;;
76208;SDS011;64990;51.698;-0.292;2022-12-18T09:18:13;58.42;;;23.23;;
76208;SDS011;64990;51.698;-0.292;2022-12-18T09:20:39;67.85;;;21.77;;
76208;SDS011;64990;51.698;-0.292;2022-12-18T09:23:06;61.92;;;23.33;;
76208;SDS011;64990;51.698;-0.292;2022-12-18T09:25:33;68.75;;;24.00;;
76208;SDS011;64990;51.698;-0.292;2022-12-18T09:28:04;65.47;;;24.65;;
76208;SDS011;64990;51.698;-0.292;2022-12-18T09:30:31;69.30;;;23.27;;
76208;SDS011;64990;51.698;-0.292;2022-12-18T09:32:59;64.10;;;21.08;;
76208;SDS011;64990;51.698;-0.292;2022-12-18T09:35:25;69.50;;;24.10;;
76208;SDS011;64990;51.698;-0.292;2022-12-18T09:37:52;83.57;;;23.73;;
76208;SDS011;64990;51.698;-0.292;2022-12-18T09:40:22;57.72;;;24.58;;
76208;SDS011;64990;51.698;-0.292;2022-12-18T09:42:57;78.15;;;23.83;;
76208;SDS011;64990;51.698;-0.292;2022-12-18T09:47:50;63.20;;;21.33;;
76208;SDS011;64990;51.698;-0.292;2022-12-18T09:50:23;64.03;;;21.98;;
76208;SDS011;64990;51.698;-0.292;2022-12-18T09:52:55;70.45;;;23.77;;
76208;SDS011;64990;51.698;-0.292;2022-12-18T09:57:50;49.03;;;21.38;;
76208;SDS011;64990;51.698;-0.292;2022-12-18T10:02:43;53.90;;;20.85;;
76208;SDS011;64990;51.698;-0.292;2022-12-18T10:05:21;64.47;;;22.92;;
76208;SDS011;64990;51.698;-0.292;2022-12-18T10:10:43;64.63;;;24.67;;
76208;SDS011;64990;51.698;-0.292;2022-12-18T10:15:54;54.00;;;23.40;;
76208;SDS011;64990;51.698;-0.292;2022-12-18T10:18:38;64.03;;;24.98;;
76208;SDS011;64990;51.698;-0.292;2022-12-18T10:23:54;59.88;;;24.75;;
76208;SDS011;64990;51.698;-0.292;2022-12-18T10:26:23;65.65;;;25.92;;
76208;SDS011;64990;51.698;-0.292;2022-12-18T10:28:50;57.60;;;27.08;;
76208;SDS011;64990;51.698;-0.292;2022-12-18T10:31:18;75.00;;;26.85;;
76208;SDS011;64990;51.698;-0.292;2022-12-18T10:33:44;64.00;;;24.02;;
76208;SDS011;64990;51.698;-0.292;2022-12-18T10:36:10;57.10;;;23.88;;
76208;SDS011;64990;51.698;-0.292;2022-12-18T10:38:37;63.50;;;24.23;;
76208;SDS011;64990;51.698;-0.292;2022-12-18T10:41:08;64.10;;;23.92;;
76208;SDS011;64990;51.698;-0.292;2022-12-18T10:46:48;56.22;;;22.70;;
76208;SDS011;64990;51.698;-0.292;2022-12-18T10:49:18;51.20;;;25.15;;
76208;SDS011;64990;51.698;-0.292;2022-12-18T10:51:45;52.13;;;24.05;;
76208;SDS011;64990;51.698;-0.292;2022-12-18T10:54:23;62.08;;;24.30;;
76208;SDS011;64990;51.698;-0.292;2022-12-18T10:56:49;58.35;;;22.25;;
76208;SDS011;64990;51.698;-0.292;2022-12-18T10:59:16;62.33;;;24.70;;
76208;SDS011;64990;51.698;-0.292;2022-12-18T11:01:53;65.22;;;25.38;;
76208;SDS011;64990;51.698;-0.292;2022-12-18T11:04:26;67.60;;;24.95;;
76208;SDS011;64990;51.698;-0.292;2022-12-18T11:06:53;53.00;;;22.48;;
76208;SDS011;64990;51.698;-0.292;2022-12-18T11:09:21;57.08;;;23.42;;
76208;SDS011;64990;51.698;-0.292;2022-12-18T11:11:51;67.57;;;26.00;;
76208;SDS011;64990;51.698;-0.292;2022-12-18T11:14:22;56.20;;;24.00;;
76208;SDS011;64990;51.698;-0.292;2022-12-18T11:16:49;55.40;;;23.35;;
76208;SDS011;64990;51.698;-0.292;2022-12-18T11:19:21;60.17;;;24.92;;
76208;SDS011;64990;51.698;-0.292;2022-12-18T11:21:48;68.65;;;27.92;;
76208;SDS011;64990;51.698;-0.292;2022-12-18T11:24:21;71.70;;;25.20;;
76208;SDS011;64990;51.698;-0.292;2022-12-18T11:26:48;64.72;;;28.60;;
76208;SDS011;64990;51.698;-0.292;2022-12-18T11:29:22;55.17;;;24.15;;
76208;SDS011;64990;51.698;-0.292;2022-12-18T11:31:49;92.50;;;29.63;;
76208;SDS011;64990;51.698;-0.292;2022-12-18T11:36:45;57.13;;;27.88;;
76208;SDS011;64990;51.698;-0.292;2022-12-18T11:39:13;53.58;;;26.40;;
76208;SDS011;64990;51.698;-0.292;2022-12-18T11:41:45;58.85;;;25.63;;
76208;SDS011;64990;51.698;-0.292;2022-12-18T11:44:35;67.15;;;25.80;;
76208;SDS011;64990;51.698;-0.292;2022-12-18T11:47:13;56.08;;;23.17;;
76208;SDS011;64990;51.698;-0.292;2022-12-18T11:49:41;56.55;;;25.95;;
76208;SDS011;64990;51.698;-0.292;2022-12-18T11:52:16;78.50;;;28.38;;
76208;SDS011;64990;51.698;-0.292;2022-12-18T11:54:43;67.90;;;25.17;;
76208;SDS011;64990;51.698;-0.292;2022-12-18T12:02:24;65.38;;;25.75;;
76208;SDS011;64990;51.698;-0.292;2022-12-18T12:05:10;72.53;;;25.25;;
76208;SDS011;64990;51.698;-0.292;2022-12-18T12:15:54;70.03;;;29.45;;
76208;SDS011;64990;51.698;-0.292;2022-12-18T12:23:26;57.78;;;24.45;;
76208;SDS011;64990;51.698;-0.292;2022-12-18T12:26:12;63.78;;;26.48;;
76208;SDS011;64990;51.698;-0.292;2022-12-18T12:39:23;62.95;;;28.08;;
76208;SDS011;64990;51.698;-0.292;2022-12-18T12:41:53;60.25;;;24.77;;
76208;SDS011;64990;51.698;-0.292;2022-12-18T12:44:39;70.80;;;29.45;;
76208;SDS011;64990;51.698;-0.292;2022-12-18T12:47:13;71.22;;;28.10;;
76208;SDS011;64990;51.698;-0.292;2022-12-18T12:49:40;63.63;;;24.63;;
76208;SDS011;64990;51.698;-0.292;2022-12-18T12:52:12;61.40;;;24.83;;
76208;SDS011;64990;51.698;-0.292;2022-12-18T12:54:40;60.92;;;24.88;;
76208;SDS011;64990;51.698;-0.292;2022-12-18T12:57:15;66.97;;;28.40;;
76208;SDS011;64990;51.698;-0.292;2022-12-18T13:03:11;56.15;;;25.75;;
76208;SDS011;64990;51.698;-0.292;2022-12-18T13:05:09;71.68;;;28.85;;
76208;SDS011;64990;51.698;-0.292;2022-12-18T13:07:45;64.75;;;27.67;;
76208;SDS011;64990;51.698;-0.292;2022-12-18T13:10:19;60.90;;;23.75;;
76208;SDS011;64990;51.698;-0.292;2022-12-18T13:12:52;79.57;;;28.88;;
76208;SDS011;64990;51.698;-0.292;2022-12-18T13:15:22;65.28;;;26.83;;
76208;SDS011;64990;51.698;-0.292;2022-12-18T13:17:48;70.25;;;26.77;;
76208;SDS011;64990;51.698;-0.292;2022-12-18T13:20:14;63.53;;;25.73;;
76208;SDS011;64990;51.698;-0.292;2022-12-18T13:22:45;64.93;;;26.58;;
76208;SDS011;64990;51.698;-0.292;2022-12-18T13:25:44;65.60;;;26.05;;
76208;SDS011;64990;51.698;-0.292;2022-12-18T13:28:07;61.33;;;26.38;;
76208;SDS011;64990;51.698;-0.292;2022-12-18T13:43:25;68.70;;;27.33;;
76208;SDS011;64990;51.698;-0.292;2022-12-18T13:46:03;62.47;;;25.77;;
76208;SDS011;64990;51.698;-0.292;2022-12-18T13:48:35;57.65;;;24.88;;
76208;SDS011;64990;51.698;-0.292;2022-12-18T13:51:08;48.45;;;21.83;;
76208;SDS011;64990;51.698;-0.292;2022-12-18T13:53:37;57.38;;;22.80;;
76208;SDS011;64990;51.698;-0.292;2022-12-18T13:56:07;48.65;;;21.77;;
76208;SDS011;64990;51.698;-0.292;2022-12-18T13:58:33;56.78;;;22.55;;
76208;SDS011;64990;51.698;-0.292;2022-12-18T14:00:59;60.30;;;20.40;;
76208;SDS011;64990;51.698;-0.292;2022-12-18T14:03:27;51.78;;;20.45;;
76208;SDS011;64990;51.698;-0.292;2022-12-18T14:06:01;51.53;;;22.55;;
76208;SDS011;64990;51.698;-0.292;2022-12-18T14:08:30;42.42;;;19.17;;
76208;SDS011;64990;51.698;-0.292;2022-12-18T14:10:58;47.53;;;19.35;;
76208;SDS011;64990;51.698;-0.292;2022-12-18T14:13:26;50.42;;;17.90;;
76208;SDS011;64990;51.698;-0.292;2022-12-18T14:15:53;46.33;;;17.83;;
76208;SDS011;64990;51.698;-0.292;2022-12-18T14:18:23;37.38;;;17.13;;
76208;SDS011;64990;51.698;-0.292;2022-12-18T14:20:51;48.03;;;18.33;;
76208;SDS011;64990;51.698;-0.292;2022-12-18T14:25:53;40.75;;;16.85;;
76208;SDS011;64990;51.698;-0.292;2022-12-18T14:28:19;45.92;;;16.85;;
76208;SDS011;64990;51.698;-0.292;2022-12-18T14:30:46;34.80;;;17.35;;
76208;SDS011;64990;51.698;-0.292;2022-12-18T14:33:19;38.17;;;15.50;;
76208;SDS011;64990;51.698;-0.292;2022-12-18T14:35:59;36.00;;;15.30;;
76208;SDS011;64990;51.698;-0.292;2022-12-18T14:38:58;35.38;;;13.23;;
76208;SDS011;64990;51.698;-0.292;2022-12-18T14:41:18;31.83;;;15.73;;
76208;SDS011;64990;51.698;-0.292;2022-12-18T14:43:46;33.95;;;15.38;;
76208;SDS011;64990;51.698;-0.292;2022-12-18T14:48:54;35.38;;;14.05;;
76208;SDS011;64990;51.698;-0.292;2022-12-18T14:51:29;29.75;;;12.45;;
76208;SDS011;64990;51.698;-0.292;2022-12-18T14:53:56;31.48;;;12.82;;
76208;SDS011;64990;51.698;-0.292;2022-12-18T14:56:24;28.45;;;12.57;;
76208;SDS011;64990;51.698;-0.292;2022-12-18T14:58:54;33.90;;;12.70;;
76208;SDS011;64990;51.698;-0.292;2022-12-18T15:01:37;32.50;;;12.25;;
76208;SDS011;64990;51.698;-0.292;2022-12-18T15:04:03;26.73;;;12.60;;
76208;SDS011;64990;51.698;-0.292;2022-12-18T15:09:00;32.78;;;12.38;;
76208;SDS011;64990;51.698;-0.292;2022-12-18T15:13:57;32.30;;;13.07;;
76208;SDS011;64990;51.698;-0.292;2022-12-18T15:16:23;27.25;;;10.48;;
76208;SDS011;64990;51.698;-0.292;2022-12-18T15:18:49;31.17;;;11.10;;
76208;SDS011;64990;51.698;-0.292;2022-12-18T15:21:19;28.85;;;12.73;;
76208;SDS011;64990;51.698;-0.292;2022-12-18T15:23:51;28.23;;;13.48;;
76208;SDS011;64990;51.698;-0.292;2022-12-18T15:26:18;25.52;;;10.68;;
76208;SDS011;64990;51.698;-0.292;2022-12-18T15:28:46;24.90;;;11.77;;
76208;SDS011;64990;51.698;-0.292;2022-12-18T15:33:39;25.58;;;10.70;;
76208;SDS011;64990;51.698;-0.292;2022-12-18T15:36:09;26.23;;;11.30;;
76208;SDS011;64990;51.698;-0.292;2022-12-18T15:38:36;34.35;;;11.88;;
76208;SDS011;64990;51.698;-0.292;2022-12-18T15:41:02;30.83;;;12.45;;
76208;SDS011;64990;51.698;-0.292;2022-12-18T15:43:28;28.00;;;11.68;;
76208;SDS011;64990;51.698;-0.292;2022-12-18T15:46:02;24.10;;;10.38;;
76208;SDS011;64990;51.698;-0.292;2022-12-18T15:48:28;26.23;;;13.32;;
76208;SDS011;64990;51.698;-0.292;2022-12-18T15:50:55;28.40;;;10.65;;
76208;SDS011;64990;51.698;-0.292;2022-12-18T15:53:22;21.27;;;10.57;;
76208;SDS011;64990;51.698;-0.292;2022-12-18T15:55:49;31.02;;;11.93;;
76208;SDS011;64990;51.698;-0.292;2022-12-18T15:58:33;29.25;;;10.82;;
76208;SDS011;64990;51.698;-0.292;2022-12-18T16:00:59;26.38;;;10.57;;
76208;SDS011;64990;51.698;-0.292;2022-12-18T16:03:26;27.58;;;11.30;;